Time;durP1;ratioP1;P1;durP2;ratioP2;P2;SDS_P1;SDS_P2;PMS_P1;PMS_P2;Temp;Humidity;BMP_temperature;BMP_pressure;BME280_temperature;BME280_humidity;BME280_pressure;Samples;Min_cycle;Max_cycle;Signal;HPM_P1;HPM_P2
2022/07/02 00:00:04;;;;;;;5.57;3.08;;;;;;;19.72;37.89;100062.63;5075149;28;20042;-70
2022/07/02 00:02:34;;;;;;;7.95;4.38;;;;;;;19.70;37.87;100054.75;5075264;28;20210;-71
2022/07/02 00:05:05;;;;;;;6.40;3.67;;;;;;;19.69;37.96;100066.50;5075035;28;20068;-71
2022/07/02 00:07:31;;;;;;;;;;;;;;;19.59;38.15;100057.78;5075675;28;20086;-71
2022/07/02 00:09:58;;;;;;;4.70;3.10;;;;;;;19.61;38.33;100067.31;5074954;28;19912;-71
2022/07/02 00:12:25;;;;;;;5.03;3.40;;;;;;;19.62;38.24;100063.63;5075163;28;20131;-70
2022/07/02 00:14:54;;;;;;;4.72;3.60;;;;;;;19.64;38.06;100058.09;5075133;28;20105;-71
2022/07/02 00:17:21;;;;;;;7.55;3.78;;;;;;;19.66;38.21;100066.81;5074782;28;20080;-71
2022/07/02 00:19:47;;;;;;;5.80;3.35;;;;;;;19.63;38.15;100070.69;5075097;28;20395;-71
2022/07/02 00:22:15;;;;;;;7.95;3.72;;;;;;;19.63;38.09;100062.63;5074489;28;20067;-71
2022/07/02 00:24:41;;;;;;;5.25;3.45;;;;;;;19.61;38.10;100070.00;5075392;28;20033;-71
2022/07/02 00:27:12;;;;;;;4.75;3.50;;;;;;;19.62;38.25;100068.19;5074811;28;20123;-71
2022/07/02 00:30:01;;;;;;;6.68;3.35;;;;;;;19.64;38.21;100071.50;5074603;28;20025;-70
2022/07/02 00:32:30;;;;;;;7.60;3.70;;;;;;;19.64;38.02;100069.69;5073885;28;20037;-71
2022/07/02 00:34:57;;;;;;;6.63;3.30;;;;;;;19.63;38.13;100064.50;5074565;28;20028;-71
2022/07/02 00:37:25;;;;;;;5.38;3.25;;;;;;;19.67;38.47;100076.56;5074416;28;20052;-71
2022/07/02 00:39:51;;;;;;;5.97;4.20;;;;;;;19.62;38.58;100071.69;5074609;28;20404;-70
2022/07/02 00:42:19;;;;;;;7.20;3.47;;;;;;;19.56;38.50;100076.88;5074111;28;20033;-70
2022/07/02 00:44:46;;;;;;;8.57;3.40;;;;;;;19.58;38.52;100083.75;5074274;28;20108;-70
2022/07/02 00:47:13;;;;;;;6.22;3.25;;;;;;;19.51;38.59;100077.41;5074458;28;20027;-70
2022/07/02 00:49:38;;;;;;;5.13;3.72;;;;;;;19.51;38.64;100082.75;5074233;28;20569;-70
2022/07/02 00:52:06;;;;;;;6.03;3.50;;;;;;;19.51;38.54;100083.59;5074379;28;20024;-70
2022/07/02 00:54:32;;;;;;;5.25;3.45;;;;;;;19.52;38.61;100084.44;5074021;28;20499;-70
2022/07/02 00:56:58;;;;;;;5.57;3.35;;;;;;;19.54;38.46;100087.81;5073974;28;20070;-70
2022/07/02 00:59:24;;;;;;;4.43;2.97;;;;;;;19.52;38.72;100084.44;5073983;28;20072;-70
2022/07/02 01:01:51;;;;;;;5.93;3.05;;;;;;;19.54;38.53;100092.31;5074033;28;20086;-70
2022/07/02 01:04:18;;;;;;;6.15;3.78;;;;;;;19.54;38.54;100085.13;5073370;28;20039;-70
2022/07/02 01:06:44;;;;;;;8.60;4.05;;;;;;;19.55;38.55;100092.16;5074084;28;20107;-70
2022/07/02 01:11:59;;;;;;;4.35;3.17;;;;;;;19.58;38.49;100085.63;5074054;28;20403;-70
2022/07/02 01:14:26;;;;;;;8.40;3.58;;;;;;;19.55;38.71;100102.91;5073655;28;20036;-70
2022/07/02 01:16:52;;;;;;;5.90;4.00;;;;;;;19.48;38.77;100097.34;5073601;28;20186;-70
2022/07/02 01:19:19;;;;;;;7.38;3.42;;;;;;;19.48;38.75;100094.66;5073614;28;20053;-70
2022/07/02 01:22:24;;;;;;;5.68;3.50;;;;;;;19.51;38.76;100094.31;5073562;28;20039;-70
2022/07/02 01:24:51;;;;;;;8.98;3.72;;;;;;;19.49;38.77;100096.31;5073638;28;20059;-70
2022/07/02 01:27:18;;;;;;;7.93;4.32;;;;;;;19.50;38.82;100103.38;5073626;28;20039;-70
2022/07/02 01:29:44;;;;;;;4.63;3.33;;;;;;;19.48;38.84;100099.19;5073373;28;20033;-70
2022/07/02 01:32:10;;;;;;;8.82;4.00;;;;;;;19.46;39.03;100096.69;5073280;28;20031;-70
2022/07/02 01:34:42;;;;;;;9.10;3.95;;;;;;;19.42;39.13;100100.69;5073608;28;20103;-69
2022/07/02 01:37:09;;;;;;;8.75;3.78;;;;;;;19.42;39.20;100099.84;5073251;28;20047;-69
2022/07/02 01:39:36;;;;;;;5.07;3.30;;;;;;;19.38;39.34;100099.34;5073189;28;20043;-69
2022/07/02 01:42:03;;;;;;;6.20;3.63;;;;;;;19.39;39.61;100106.38;5073346;28;20036;-69
2022/07/02 01:44:28;;;;;;;5.40;3.35;;;;;;;19.39;39.24;100098.34;5073269;28;20024;-70
2022/07/02 01:46:53;;;;;;;5.22;3.90;;;;;;;19.42;39.21;100114.13;5073339;28;20032;-70
2022/07/02 01:49:19;;;;;;;7.15;3.70;;;;;;;19.49;39.06;100115.13;5073377;28;20501;-70
2022/07/02 01:51:44;;;;;;;9.80;3.70;;;;;;;19.51;39.12;100110.44;5073267;28;20138;-70
2022/07/02 01:54:10;;;;;;;8.15;3.83;;;;;;;19.51;39.32;100109.59;5073273;28;20549;-70
2022/07/02 01:56:36;;;;;;;6.75;3.70;;;;;;;19.50;39.22;100116.78;5072824;28;20036;-70
2022/07/02 01:59:01;;;;;;;10.77;4.18;;;;;;;19.52;39.20;100125.53;5072835;28;20111;-70
2022/07/02 02:01:27;;;;;;;6.57;3.83;;;;;;;19.55;39.32;100121.69;5072975;28;20081;-70
2022/07/02 02:03:53;;;;;;;11.70;3.58;;;;;;;19.55;39.10;100118.16;5072863;28;20039;-70
2022/07/02 02:06:18;;;;;;;10.55;4.22;;;;;;;19.58;39.31;100123.19;5073013;28;20488;-71
2022/07/02 02:08:44;;;;;;;8.88;3.63;;;;;;;19.59;39.59;100127.56;5072790;28;20055;-70
2022/07/02 02:11:10;;;;;;;5.15;3.90;;;;;;;19.61;39.31;100130.94;5072577;28;20077;-70
2022/07/02 02:13:35;;;;;;;10.45;4.53;;;;;;;19.62;39.43;100122.69;5072688;28;20039;-70
2022/07/02 02:16:01;;;;;;;7.60;3.80;;;;;;;19.67;39.38;100136.47;5072133;28;20097;-70
2022/07/02 02:18:26;;;;;;;9.73;4.13;;;;;;;19.72;39.32;100135.97;5072460;28;20573;-70
2022/07/02 02:20:52;;;;;;;9.60;4.57;;;;;;;19.77;39.25;100140.84;5072900;28;20032;-70
2022/07/02 02:23:17;;;;;;;11.73;4.63;;;;;;;19.90;39.03;100141.22;5072536;28;20488;-70
2022/07/02 02:25:43;;;;;;;9.80;4.00;;;;;;;19.84;39.44;100139.19;5053149;28;20548;-71
2022/07/02 02:28:08;;;;;;;7.85;4.65;;;;;;;19.76;39.59;100137.31;5052501;28;20036;-70
2022/07/02 02:30:33;;;;;;;12.30;5.07;;;;;;;19.71;39.95;100138.81;5052729;28;20041;-70
2022/07/02 02:32:59;;;;;;;11.23;4.53;;;;;;;19.68;40.07;100123.88;5064530;28;20162;-71
2022/07/02 02:35:24;;;;;;;10.05;4.85;;;;;;;19.69;40.08;100124.72;5072777;28;20044;-70
2022/07/02 02:37:50;;;;;;;9.98;4.28;;;;;;;19.74;40.23;100130.41;5072492;28;20036;-70
2022/07/02 02:40:15;;;;;;;15.88;4.45;;;;;;;19.83;40.06;100129.44;5072745;28;20032;-70
2022/07/02 02:42:41;;;;;;;13.30;4.70;;;;;;;19.97;39.91;100142.25;5072962;28;20028;-70
2022/07/02 02:45:07;;;;;;;11.73;5.07;;;;;;;20.03;39.72;100142.56;5072772;28;20036;-70
2022/07/02 02:47:32;;;;;;;11.35;4.90;;;;;;;20.04;39.38;100139.72;5072286;28;20066;-70
2022/07/02 02:49:58;;;;;;;10.30;4.88;;;;;;;20.04;39.44;100146.91;5072623;28;20067;-70
2022/07/02 02:52:23;;;;;;;16.88;4.57;;;;;;;20.07;39.27;100138.53;5072396;28;20028;-70
2022/07/02 02:54:49;;;;;;;14.77;5.25;;;;;;;20.06;39.48;100132.34;5072571;28;20032;-70
2022/07/02 02:57:14;;;;;;;14.63;4.65;;;;;;;20.04;39.65;100133.50;5072474;28;20036;-71
2022/07/02 02:59:40;;;;;;;11.55;4.80;;;;;;;19.94;39.93;100126.44;5072614;28;20109;-70
2022/07/02 03:02:05;;;;;;;11.98;4.88;;;;;;;19.92;39.93;100130.31;5072470;28;20484;-70
2022/07/02 03:04:31;;;;;;;7.85;4.60;;;;;;;20.00;39.64;100130.31;5072515;28;20056;-70
2022/07/02 03:06:56;;;;;;;10.82;4.50;;;;;;;20.17;39.18;100122.25;5072243;28;20399;-70
2022/07/02 03:09:22;;;;;;;9.88;5.00;;;;;;;20.33;38.85;100119.53;5072405;28;20029;-71
2022/07/02 03:11:47;;;;;;;10.00;4.03;;;;;;;20.49;38.41;100123.22;5072271;28;20028;-70
2022/07/02 03:14:13;;;;;;;12.52;4.72;;;;;;;20.56;38.30;100126.88;5072377;28;20044;-70
2022/07/02 03:16:38;;;;;;;12.93;4.68;;;;;;;20.64;38.39;100120.63;5070651;28;20083;-70
2022/07/02 03:19:04;;;;;;;11.45;3.88;;;;;;;20.80;38.04;100125.16;5072100;28;20052;-71
2022/07/02 03:21:29;;;;;;;7.63;4.40;;;;;;;20.98;37.85;100131.13;5072072;28;20028;-70
2022/07/02 03:23:55;;;;;;;9.23;4.47;;;;;;;21.16;37.63;100125.53;5072176;28;20395;-70
2022/07/02 03:26:20;;;;;;;7.53;4.68;;;;;;;21.27;37.31;100131.50;5072212;28;20457;-71
2022/07/02 03:28:46;;;;;;;10.38;3.70;;;;;;;21.41;37.19;100129.91;5075081;28;20115;-70
2022/07/02 03:31:11;;;;;;;8.45;3.55;;;;;;;21.54;37.09;100132.03;5075545;28;20476;-71
2022/07/02 03:33:38;;;;;;;10.85;3.70;;;;;;;21.69;36.83;100135.66;5075574;28;20385;-70
2022/07/02 03:36:04;;;;;;;8.10;3.63;;;;;;;21.71;36.44;100139.00;5075931;28;20163;-70
2022/07/02 03:38:29;;;;;;;7.10;3.92;;;;;;;21.68;36.44;100143.94;5076126;28;20514;-70
2022/07/02 03:40:55;;;;;;;10.48;3.90;;;;;;;21.69;36.22;100134.84;5075508;28;20545;-70
2022/07/02 03:43:20;;;;;;;13.32;4.30;;;;;;;21.74;36.16;100145.88;5075193;28;20040;-70
2022/07/02 03:45:46;;;;;;;10.90;5.18;;;;;;;21.77;36.21;100142.84;5075711;28;20078;-70
2022/07/02 03:48:11;;;;;;;10.50;4.30;;;;;;;21.78;36.07;100144.53;5075409;28;20041;-70
2022/07/02 03:50:40;;;;;;;6.47;3.88;;;;;;;21.85;35.85;100140.06;5075648;28;20086;-70
2022/07/02 03:53:06;;;;;;;9.25;4.10;;;;;;;21.95;35.76;100146.06;5075399;28;20079;-70
2022/07/02 03:55:31;;;;;;;10.35;3.50;;;;;;;22.22;35.19;100157.28;5075294;28;20484;-70
2022/07/02 03:57:57;;;;;;;8.82;3.65;;;;;;;22.17;35.38;100157.00;5075186;28;20064;-70
2022/07/02 04:00:22;;;;;;;4.55;3.22;;;;;;;22.12;35.35;100162.13;5075094;28;20060;-70
2022/07/02 04:02:48;;;;;;;6.75;3.70;;;;;;;22.13;35.21;100161.06;5075521;28;20029;-71
2022/07/02 04:05:13;;;;;;;10.40;3.47;;;;;;;22.06;34.97;100155.56;5075366;28;20059;-71
2022/07/02 04:07:39;;;;;;;5.47;3.30;;;;;;;21.93;35.12;100158.03;5075086;28;20384;-71
2022/07/02 04:10:05;;;;;;;8.68;3.55;;;;;;;21.94;35.00;100155.19;5075315;28;20060;-71
2022/07/02 04:12:31;;;;;;;9.43;2.70;;;;;;;21.83;35.32;100161.00;5074947;28;20107;-71
2022/07/02 04:14:57;;;;;;;5.00;3.13;;;;;;;21.71;35.27;100149.78;5075249;28;20376;-71
2022/07/02 04:17:23;;;;;;;7.28;3.30;;;;;;;21.62;35.33;100157.09;5074730;28;20101;-71
2022/07/02 04:19:48;;;;;;;8.25;2.88;;;;;;;21.57;35.32;100161.28;5073587;28;20506;-71
2022/07/02 04:22:13;;;;;;;8.55;3.33;;;;;;;21.46;35.30;100166.06;5074552;28;20051;-70
2022/07/02 04:24:39;;;;;;;6.18;2.78;;;;;;;21.41;35.37;100165.75;5074870;28;20472;-70
2022/07/02 04:27:05;;;;;;;5.82;2.80;;;;;;;21.45;35.34;100161.69;5075025;28;20032;-70
2022/07/02 04:29:30;;;;;;;5.53;2.95;;;;;;;21.50;35.24;100159.28;5074685;28;20047;-70
2022/07/02 04:31:56;;;;;;;5.95;3.20;;;;;;;21.48;35.17;100155.94;5074814;28;20036;-71
2022/07/02 04:34:21;;;;;;;7.07;3.67;;;;;;;21.42;35.02;100151.28;5074516;28;20036;-70
2022/07/02 04:36:47;;;;;;;11.27;3.15;;;;;;;21.44;35.03;100151.09;5074679;28;20032;-71
2022/07/02 04:39:12;;;;;;;5.43;3.17;;;;;;;21.46;34.91;100154.44;5073694;28;20119;-70
2022/07/02 04:41:37;;;;;;;11.02;3.58;;;;;;;21.60;34.75;100144.81;5074469;28;20036;-71
2022/07/02 04:44:03;;;;;;;6.90;3.15;;;;;;;21.85;34.37;100150.84;5074449;28;20494;-71
2022/07/02 04:46:28;;;;;;;6.25;3.13;;;;;;;22.07;34.07;100143.78;5073017;28;20507;-71
2022/07/02 04:48:54;;;;;;;9.18;2.58;;;;;;;22.30;33.61;100144.75;5074559;28;20032;-71
2022/07/02 04:51:19;;;;;;;8.13;3.50;;;;;;;22.58;33.38;100139.63;5074862;28;20531;-71
2022/07/02 04:53:45;;;;;;;7.50;3.60;;;;;;;22.72;33.15;100129.84;5074379;28;20025;-71
2022/07/02 04:56:10;;;;;;;6.28;2.85;;;;;;;22.90;32.99;100131.34;5074293;28;20048;-70
2022/07/02 04:58:36;;;;;;;4.63;2.80;;;;;;;23.16;32.59;100126.28;5074022;28;20054;-71
2022/07/02 05:01:01;;;;;;;6.63;2.88;;;;;;;23.46;32.22;100130.81;5074292;28;20090;-71
2022/07/02 05:03:27;;;;;;;10.02;3.08;;;;;;;23.68;32.02;100133.50;5073857;28;20510;-72
2022/07/02 05:05:52;;;;;;;8.77;2.67;;;;;;;23.81;31.71;100140.91;5074240;28;20128;-71
2022/07/02 05:08:24;;;;;;;7.07;3.13;;;;;;;23.89;31.73;100130.00;5073822;28;20541;-71
2022/07/02 05:10:49;;;;;;;4.68;2.60;;;;;;;24.04;31.82;100138.03;5073905;28;20028;-71
2022/07/02 05:13:15;;;;;;;4.38;2.97;;;;;;;24.18;31.37;100136.28;5073664;28;20027;-72
2022/07/02 05:15:40;;;;;;;8.02;3.17;;;;;;;24.28;30.86;100128.66;5073986;28;20037;-72
2022/07/02 05:18:06;;;;;;;5.97;3.33;;;;;;;24.43;30.86;100133.13;5073410;28;20048;-71
2022/07/02 05:20:31;;;;;;;7.60;3.00;;;;;;;24.60;30.49;100133.66;5073901;28;20032;-71
2022/07/02 05:22:57;;;;;;;6.38;2.95;;;;;;;24.70;30.65;100131.47;5073706;28;20028;-71
2022/07/02 05:25:22;;;;;;;5.05;3.10;;;;;;;24.79;30.42;100134.81;5073783;28;20078;-71
2022/07/02 05:27:49;;;;;;;8.63;3.15;;;;;;;24.89;30.22;100129.91;5073609;28;20077;-69
2022/07/02 05:30:14;;;;;;;8.32;2.95;;;;;;;25.03;29.77;100129.97;5073606;28;20025;-70
2022/07/02 05:32:40;;;;;;;4.45;3.00;;;;;;;25.16;29.62;100129.16;5073195;28;20487;-69
2022/07/02 05:35:05;;;;;;;5.93;3.55;;;;;;;25.25;29.44;100119.84;5073604;28;20028;-70
2022/07/02 05:37:31;;;;;;;6.63;2.60;;;;;;;25.35;29.67;100119.47;5073767;28;20097;-70
2022/07/02 05:39:56;;;;;;;6.10;2.88;;;;;;;25.44;29.48;100113.66;5074134;28;20036;-70
2022/07/02 05:42:22;;;;;;;10.20;2.80;;;;;;;25.48;28.79;100114.09;5073151;28;20032;-70
2022/07/02 05:44:47;;;;;;;7.57;3.63;;;;;;;25.34;28.95;100120.50;5073261;28;20036;-70
2022/07/02 05:47:13;;;;;;;6.82;3.78;;;;;;;25.16;29.04;100124.59;5073247;28;20441;-70
2022/07/02 05:49:38;;;;;;;6.47;3.08;;;;;;;25.11;29.10;100117.09;5073631;28;20389;-70
2022/07/02 05:52:04;;;;;;;9.85;3.47;;;;;;;25.04;29.14;100116.22;5073022;28;20032;-70
2022/07/02 05:54:29;;;;;;;7.20;3.67;;;;;;;25.10;29.08;100111.84;5073597;28;20040;-71
2022/07/02 05:56:55;;;;;;;5.68;3.40;;;;;;;25.15;29.18;100117.50;5073205;28;20036;-70
2022/07/02 05:59:22;;;;;;;5.95;3.00;;;;;;;25.13;28.93;100112.31;5073250;28;20507;-70
2022/07/02 06:01:48;;;;;;;7.25;3.33;;;;;;;25.10;29.10;100109.16;5072991;28;20507;-70
2022/07/02 06:04:13;;;;;;;4.63;3.20;;;;;;;25.12;29.28;100110.63;5072869;28;20037;-71
2022/07/02 06:09:23;;;;;;;6.55;3.17;;;;;;;25.06;29.27;100113.31;5073368;28;20039;-70
2022/07/02 06:11:48;;;;;;;7.65;3.63;;;;;;;24.90;29.49;100112.63;5073002;28;20399;-71
2022/07/02 06:14:14;;;;;;;8.88;3.15;;;;;;;24.91;29.45;100108.03;5073310;28;20155;-70
2022/07/02 06:16:39;;;;;;;4.50;2.78;;;;;;;24.91;29.12;100103.47;5072613;28;20056;-71
2022/07/02 06:19:06;;;;;;;5.15;2.72;;;;;;;24.91;29.08;100102.63;5072921;28;20047;-70
2022/07/02 06:21:33;;;;;;;11.75;3.70;;;;;;;24.83;29.15;100107.19;5072328;28;20445;-70
2022/07/02 06:23:58;;;;;;;5.10;2.75;;;;;;;24.80;28.75;100106.72;5072820;28;20046;-70
2022/07/02 06:26:23;;;;;;;7.00;2.75;;;;;;;24.60;28.93;100091.22;5072774;28;20539;-70
2022/07/02 06:28:49;;;;;;;6.28;4.25;;;;;;;24.43;28.86;100103.38;5072882;28;20032;-70
2022/07/02 06:31:14;;;;;;;4.40;2.55;;;;;;;24.18;29.07;100087.63;5072484;28;20042;-70
2022/07/02 06:33:41;;;;;;;6.07;2.40;;;;;;;23.94;29.34;100084.28;5072469;28;20033;-70
2022/07/02 06:36:10;;;;;;;6.75;3.03;;;;;;;23.82;29.45;100091.25;5072476;28;20060;-70
2022/07/02 06:38:38;;;;;;;6.90;3.03;;;;;;;23.69;29.82;100089.25;5072862;28;20395;-70
2022/07/02 06:42:18;;;;;;;4.25;3.00;;;;;;;23.58;30.09;100090.63;5072115;28;20040;-68
2022/07/02 06:43:49;;;;;;;5.72;3.47;;;;;;;23.39;29.87;100086.66;5072011;28;20124;-70
2022/07/02 06:46:14;;;;;;;5.78;3.08;;;;;;;23.19;30.31;100086.44;5072630;28;20107;-70
2022/07/02 06:48:40;;;;;;;8.60;3.22;;;;;;;23.09;30.17;100092.13;5071043;28;20123;-71
2022/07/02 06:51:05;;;;;;;8.95;2.85;;;;;;;22.95;30.69;100086.56;5072602;28;20036;-71
2022/07/02 06:53:31;;;;;;;4.50;3.22;;;;;;;23.00;30.47;100077.94;5072708;28;20454;-70
2022/07/02 06:55:56;;;;;;;6.38;3.70;;;;;;;23.05;30.56;100086.28;5072316;28;20499;-70
2022/07/02 06:58:22;;;;;;;9.30;3.33;;;;;;;23.10;30.39;100088.41;5072445;28;20044;-70
2022/07/02 07:00:47;;;;;;;7.45;3.70;;;;;;;23.02;30.37;100090.19;5072242;28;20072;-70
2022/07/02 07:03:13;;;;;;;11.43;3.40;;;;;;;22.95;30.57;100083.06;5075070;28;20101;-70
2022/07/02 07:05:39;;;;;;;6.78;3.38;;;;;;;22.93;30.41;100082.41;5076151;28;20028;-70
2022/07/02 07:08:05;;;;;;;8.63;3.00;;;;;;;22.96;30.70;100084.72;5075958;28;20043;-70
2022/07/02 07:10:33;;;;;;;5.75;3.55;;;;;;;23.01;30.36;100085.81;5075988;28;20484;-70
2022/07/02 07:12:59;;;;;;;4.07;2.50;;;;;;;22.98;30.46;100077.28;5076098;28;20077;-70
2022/07/02 07:15:24;;;;;;;3.70;2.90;;;;;;;22.85;30.28;100070.69;5076251;28;20036;-71
2022/07/02 07:17:50;;;;;;;6.78;3.08;;;;;;;22.71;30.35;100069.69;5075703;28;20080;-70
2022/07/02 07:20:19;;;;;;;7.78;2.72;;;;;;;22.70;30.53;100068.00;5076211;28;20051;-72
2022/07/02 07:22:44;;;;;;;4.82;2.92;;;;;;;22.69;30.42;100062.81;5075736;28;20036;-70
2022/07/02 07:25:10;;;;;;;5.95;2.80;;;;;;;22.75;30.51;100066.63;5075878;28;20491;-70
2022/07/02 07:27:35;;;;;;;5.68;2.97;;;;;;;22.81;30.19;100063.16;5075864;28;20449;-70
2022/07/02 07:30:01;;;;;;;4.53;2.70;;;;;;;22.85;30.21;100062.59;5076221;28;20040;-70
2022/07/02 07:32:26;;;;;;;8.40;2.95;;;;;;;22.91;30.26;100062.84;5075515;28;20058;-69
2022/07/02 07:34:52;;;;;;;7.00;3.10;;;;;;;22.94;30.04;100062.47;5075770;28;20039;-70
2022/07/02 07:37:17;;;;;;;4.35;2.95;;;;;;;22.93;30.16;100060.81;5075554;28;20078;-70
2022/07/02 07:39:43;;;;;;;6.28;2.78;;;;;;;22.86;30.19;100060.72;5075314;28;20403;-70
2022/07/02 07:42:08;;;;;;;7.10;3.63;;;;;;;22.76;30.24;100058.31;5075279;28;20024;-70
2022/07/02 07:44:34;;;;;;;7.97;3.58;;;;;;;22.74;30.15;100052.28;5074995;28;20036;-70
2022/07/02 07:46:59;;;;;;;10.65;2.95;;;;;;;22.79;30.31;100057.94;5075360;28;20081;-70
2022/07/02 07:49:25;;;;;;;7.07;2.97;;;;;;;22.82;30.25;100054.03;5075291;28;20067;-71
2022/07/02 07:51:50;;;;;;;6.70;2.95;;;;;;;22.78;30.05;100053.56;5075494;28;20111;-70
2022/07/02 07:54:16;;;;;;;6.20;3.10;;;;;;;22.75;30.23;100053.94;5075241;28;20062;-71
2022/07/02 07:56:43;;;;;;;8.00;3.28;;;;;;;22.76;30.13;100055.63;5075067;28;20031;-70
2022/07/02 07:59:08;;;;;;;6.35;2.70;;;;;;;22.75;30.09;100055.81;5075933;28;20039;-69
2022/07/02 08:01:34;;;;;;;8.73;2.70;;;;;;;22.75;30.06;100050.44;5073706;28;20024;-71
2022/07/02 08:03:59;;;;;;;4.22;2.78;;;;;;;22.67;29.84;100056.75;5075383;28;20617;-70
2022/07/02 08:06:25;;;;;;;4.18;2.75;;;;;;;22.63;29.92;100061.69;5075233;28;20040;-69
2022/07/02 08:08:50;;;;;;;5.80;2.30;;;;;;;22.52;29.86;100064.84;5075251;28;20049;-69
2022/07/02 08:11:16;;;;;;;9.40;3.65;;;;;;;22.41;29.82;100063.44;5074988;28;20395;-70
2022/07/02 08:13:41;;;;;;;3.92;2.58;;;;;;;22.41;29.89;100055.34;5073702;28;20037;-70
2022/07/02 08:16:07;;;;;;;6.20;3.10;;;;;;;22.47;30.19;100051.94;5074795;28;20036;-70
2022/07/02 08:18:32;;;;;;;6.15;3.70;;;;;;;22.57;30.03;100048.13;5074596;28;20060;-70
2022/07/02 08:20:59;;;;;;;3.55;2.58;;;;;;;22.67;29.83;100029.78;5075060;28;20527;-70
2022/07/02 08:23:25;;;;;;;4.93;2.70;;;;;;;22.68;29.86;100037.69;5074523;28;20393;-70
2022/07/02 08:25:51;;;;;;;8.48;3.65;;;;;;;22.64;29.65;100036.41;5075301;28;20048;-70
2022/07/02 08:28:17;;;;;;;6.68;3.00;;;;;;;22.61;29.62;100033.22;5074578;28;20028;-70
2022/07/02 08:30:43;;;;;;;4.15;2.70;;;;;;;22.66;29.49;100044.28;5074518;28;20040;-70
2022/07/02 08:33:09;;;;;;;9.23;2.95;;;;;;;22.64;29.61;100033.72;5074554;28;20077;-71
2022/07/02 08:35:35;;;;;;;3.97;2.83;;;;;;;22.63;29.60;100041.97;5074515;28;20044;-71
2022/07/02 08:38:00;;;;;;;6.88;2.60;;;;;;;22.63;29.62;100028.50;5074659;28;20040;-71
2022/07/02 08:40:29;;;;;;;5.03;3.03;;;;;;;22.70;29.58;100021.31;5074666;28;20036;-71
2022/07/02 08:42:57;;;;;;;3.55;2.72;;;;;;;22.68;29.51;100024.19;5074057;28;20561;-70
2022/07/02 08:45:25;;;;;;;8.27;2.78;;;;;;;22.67;29.66;100024.41;5074345;28;20454;-71
2022/07/02 08:47:52;;;;;;;6.45;2.90;;;;;;;22.56;29.60;100023.00;5074229;28;20040;-70
2022/07/02 08:50:20;;;;;;;6.45;2.80;;;;;;;22.56;29.57;100023.00;5074388;28;20082;-71
2022/07/02 08:52:48;;;;;;;6.03;2.95;;;;;;;22.59;29.83;100025.34;5074236;28;20036;-71
2022/07/02 08:55:14;;;;;;;8.05;4.35;;;;;;;22.63;29.48;100028.50;5072766;28;20035;-71
2022/07/02 08:57:39;;;;;;;5.53;2.45;;;;;;;22.63;29.74;100015.00;5073693;28;20100;-71
2022/07/02 09:00:06;;;;;;;6.57;3.67;;;;;;;22.70;29.86;100010.53;5074635;28;20442;-71
2022/07/02 09:02:32;;;;;;;5.82;3.63;;;;;;;22.73;29.72;100015.53;5073739;28;20412;-71
2022/07/02 09:05:01;;;;;;;7.68;3.97;;;;;;;22.75;30.08;100007.28;5074087;28;20036;-69
2022/07/02 09:07:26;;;;;;;8.73;3.70;;;;;;;22.80;29.67;100002.13;5073864;28;20028;-69
2022/07/02 09:09:52;;;;;;;11.75;4.88;;;;;;;22.85;29.92;99995.16;5073972;28;20396;-70
2022/07/02 09:12:18;;;;;;;11.95;5.63;;;;;;;22.91;30.29;100003.50;5073950;28;20028;-70
2022/07/02 09:14:44;;;;;;;9.63;3.50;;;;;;;22.94;30.11;99998.53;5073951;28;20060;-70
2022/07/02 09:17:11;;;;;;;6.93;3.92;;;;;;;22.91;29.84;99998.09;5073661;28;20075;-70
2022/07/02 09:19:38;;;;;;;7.43;4.40;;;;;;;22.92;30.00;99999.78;5074136;28;20029;-70
2022/07/02 09:22:04;;;;;;;7.63;3.70;;;;;;;22.96;30.15;99993.81;5073385;28;20248;-70
2022/07/02 09:24:35;;;;;;;11.43;5.20;;;;;;;23.00;30.41;99984.31;5073164;28;20044;-70
2022/07/02 09:27:09;;;;;;;9.43;4.15;;;;;;;23.05;30.28;99986.41;5073078;28;20043;-70
2022/07/02 09:29:48;;;;;;;8.20;3.33;;;;;;;23.02;30.05;99981.41;5073794;28;20044;-70
2022/07/02 09:32:14;;;;;;;6.20;3.20;;;;;;;23.04;30.24;99987.44;5073466;28;20032;-70
2022/07/02 09:34:45;;;;;;;7.57;3.10;;;;;;;23.05;29.86;99980.19;5073618;28;20036;-70
2022/07/02 09:37:15;;;;;;;;;;;;;;;22.90;29.83;99974.84;5073577;28;20111;-70
2022/07/02 09:39:41;;;;;;;5.25;2.65;;;;;;;22.90;29.95;99970.28;5073825;28;19959;-71
2022/07/02 09:42:07;;;;;;;12.68;2.50;;;;;;;22.89;29.77;99959.69;5073053;28;20032;-70
2022/07/02 09:44:33;;;;;;;8.77;3.30;;;;;;;22.91;29.85;99958.47;5073571;28;20036;-70
2022/07/02 09:46:58;;;;;;;5.10;3.15;;;;;;;22.89;29.57;99956.97;5073041;28;20028;-71
2022/07/02 09:49:23;;;;;;;6.90;2.70;;;;;;;22.84;29.54;99954.84;5073376;28;20047;-70
2022/07/02 09:51:51;;;;;;;5.70;2.78;;;;;;;22.86;29.74;99950.13;5073220;28;20036;-70
2022/07/02 09:54:21;;;;;;;4.45;2.63;;;;;;;22.93;29.79;99947.47;5072902;28;20548;-70
2022/07/02 09:56:58;;;;;;;3.80;2.50;;;;;;;22.98;29.98;99945.88;5073419;28;20416;-70
2022/07/02 09:59:24;;;;;;;5.38;2.42;;;;;;;23.06;29.72;99949.50;5072909;28;20036;-70
2022/07/02 10:01:50;;;;;;;7.55;2.80;;;;;;;23.03;29.54;99942.59;5072755;28;20075;-70
2022/07/02 10:04:15;;;;;;;5.40;2.25;;;;;;;22.98;29.58;99942.34;5072909;28;20492;-70
2022/07/02 10:06:44;;;;;;;8.65;2.33;;;;;;;22.95;29.34;99940.84;5073071;28;20037;-70
2022/07/02 10:09:12;;;;;;;3.97;2.83;;;;;;;22.95;29.38;99929.25;5072758;28;20040;-70
2022/07/02 10:11:38;;;;;;;7.40;2.70;;;;;;;22.94;29.37;99927.56;5072496;28;20043;-70
2022/07/02 10:14:04;;;;;;;9.98;2.83;;;;;;;23.00;29.41;99926.81;5072999;28;20032;-70
2022/07/02 10:16:31;;;;;;;4.35;2.58;;;;;;;23.03;29.31;99921.00;5072448;28;20060;-70
2022/07/02 10:19:01;;;;;;;6.45;2.60;;;;;;;23.04;29.18;99922.69;5072720;28;20024;-70
2022/07/02 10:21:28;;;;;;;9.52;2.95;;;;;;;23.03;29.37;99915.59;5072404;28;20044;-70
2022/07/02 10:23:54;;;;;;;3.40;2.22;;;;;;;23.04;29.30;99906.47;5072616;28;20056;-70
2022/07/02 10:26:22;;;;;;;3.58;2.65;;;;;;;23.08;29.48;99901.56;5072437;28;20040;-70
2022/07/02 10:28:48;;;;;;;6.78;2.58;;;;;;;23.12;29.51;99902.81;5072752;28;20044;-70
2022/07/02 10:31:18;;;;;;;8.07;2.83;;;;;;;23.15;29.52;99905.97;5072616;28;20056;-70
2022/07/02 10:34:09;;;;;;;5.93;2.85;;;;;;;23.16;29.26;99914.91;5072362;28;20510;-70
2022/07/02 10:36:35;;;;;;;8.20;2.35;;;;;;;23.11;29.02;99910.09;5071797;28;20033;-70
2022/07/02 10:39:02;;;;;;;4.03;2.70;;;;;;;23.13;29.01;99899.09;5072831;28;20063;-70
2022/07/02 10:41:32;;;;;;;6.55;2.53;;;;;;;23.16;28.99;99896.81;5072219;28;20048;-71
2022/07/02 10:43:59;;;;;;;4.70;2.70;;;;;;;23.19;28.88;99886.66;5072700;28;20033;-70
2022/07/02 10:46:26;;;;;;;3.53;2.45;;;;;;;23.18;28.85;99891.25;5072233;28;20380;-70
2022/07/02 10:48:54;;;;;;;5.47;2.20;;;;;;;23.20;28.75;99893.75;5072356;28;20036;-70
2022/07/02 10:51:28;;;;;;;4.07;2.58;;;;;;;23.19;28.59;99890.22;5072288;28;20519;-71
2022/07/02 10:54:06;;;;;;;3.78;2.22;;;;;;;23.21;28.46;99877.41;5072645;28;20094;-70
2022/07/02 10:56:49;;;;;;;4.60;2.47;;;;;;;23.24;28.33;99882.38;5072265;28;20032;-70
2022/07/02 10:59:20;;;;;;;9.65;2.67;;;;;;;23.24;28.48;99879.69;5072737;28;20500;-71
2022/07/02 11:01:46;;;;;;;6.95;2.20;;;;;;;23.27;28.64;99887.41;5072103;28;20041;-70
2022/07/02 11:04:20;;;;;;;4.25;2.33;;;;;;;23.31;28.30;99890.53;5072219;28;20043;-71
2022/07/02 11:06:47;;;;;;;9.07;2.60;;;;;;;23.30;28.65;99883.50;5072376;28;20037;-71
2022/07/02 11:09:13;;;;;;;9.38;2.50;;;;;;;23.33;28.41;99874.16;5072166;28;20028;-71
2022/07/02 11:11:39;;;;;;;4.93;2.78;;;;;;;23.35;28.42;99878.31;5087545;28;20089;-71
2022/07/02 11:14:16;;;;;;;7.45;2.47;;;;;;;23.36;28.44;99880.00;5072317;28;20040;-71
2022/07/02 11:16:46;;;;;;;4.88;2.20;;;;;;;23.38;28.28;99879.81;5071869;28;20099;-71
2022/07/02 11:19:11;;;;;;;5.30;2.47;;;;;;;23.38;28.43;99869.00;5072367;28;20028;-71
2022/07/02 11:21:39;;;;;;;4.03;2.38;;;;;;;23.38;28.42;99866.31;5071956;28;20396;-71
2022/07/02 11:24:06;;;;;;;7.45;2.20;;;;;;;23.39;28.46;99871.50;5065497;28;20028;-71
2022/07/02 11:26:32;;;;;;;4.30;1.92;;;;;;;23.40;27.97;99870.47;5051857;28;20119;-71
2022/07/02 11:29:03;;;;;;;4.97;2.25;;;;;;;23.40;27.73;99869.63;5052101;28;20159;-71